Aviation Digital Data Service (ADDS)

Output produced by METARs form (2115 UTC 01 December 2021)
found at http://aviationweather.gov/metar/data/
 
KIAH 011720Z 0118/0224 22007KT P6SM FEW030 SCT250 
     FM020100 19004KT P6SM SCT250 
     FM020500 VRB02KT 5SM BR FEW005 SCT250 
     FM020800 00000KT 1SM BR BKN002 
     FM021500 20005KT P6SM FEW010 SCT250